Coral Electra — PCAG — position and weather

sailwx.info

Track history (hours):
 
Tides and Currents Weather Stations Pressure Air Temp Water Temp Dewpoint Dewpoint Depression Visibility Wind Speed Wind Dir Waves Ship Positions

Coral Electra

Last reported at 2014-Aug-01 01:29 UTC. Time now 2014-Aug-01 01:54 UTC.
Position N 53°20' E 006°56'.

Length 14 m; draft 2 m.

Type: Port tender. MMSI: 244690019.

Date/timePositionNaut miles runAvg speedWind from/ knotsBaromVisibWave heightAir tempDewpointWater temp
2014-Aug-01 01:29N 53°20' E 006°56'0 0.0
2014-Aug-01 00:32N 53°20' E 006°56'0 0.0
2014-Jul-31 23:29N 53°20' E 006°56'0 0.0
2014-Jul-31 22:17N 53°20' E 006°56'0 0.0
2014-Jul-31 21:32N 53°20' E 006°56'0 0.0
2014-Jul-31 20:29N 53°20' E 006°56'0 0.0
2014-Jul-31 19:32N 53°20' E 006°56'0 0.0
2014-Jul-31 18:26N 53°20' E 006°56'0 0.0
2014-Jul-31 17:32N 53°20' E 006°56'0 0.0
2014-Jul-31 16:32N 53°20' E 006°56'0 0.0
2014-Jul-31 15:32N 53°20' E 006°56'0 0.0
2014-Jul-31 14:32N 53°20' E 006°56'0 0.0
2014-Jul-31 13:32N 53°20' E 006°56'0 0.0
2014-Jul-31 12:20N 53°20' E 006°56'0 0.0
2014-Jul-31 11:32N 53°20' E 006°56'0 0.0
2014-Jul-31 10:29N 53°20' E 006°56'0 0.0
2014-Jul-31 09:29N 53°20' E 006°56'0 0.0
2014-Jul-31 08:32N 53°20' E 006°56'0 0.0
2014-Jul-31 07:29N 53°20' E 006°56'0 0.0
2014-Jul-31 06:32N 53°20' E 006°56'0 0.0
2014-Jul-31 05:32N 53°20' E 006°56'0 0.0
2014-Jul-31 04:26N 53°20' E 006°56'0 0.0
2014-Jul-31 03:32N 53°20' E 006°56'0 0.0
2014-Jul-31 02:32N 53°20' E 006°56'0 0.0
2014-Jul-31 01:29N 53°20' E 006°56'0 0.0
2014-Jul-31 00:32N 53°20' E 006°56'0 0.0
2014-Jul-30 23:32N 53°20' E 006°56'0 0.0
2014-Jul-30 22:32N 53°20' E 006°56'0 0.0
2014-Jul-30 21:32N 53°20' E 006°56'0 0.0
2014-Jul-30 20:32N 53°20' E 006°56'0 0.0
2014-Jul-30 19:32N 53°20' E 006°56'0 0.0
2014-Jul-30 18:29N 53°20' E 006°56'0 0.0
2014-Jul-30 17:32N 53°20' E 006°56'0 0.0
2014-Jul-30 16:32N 53°20' E 006°56'0 0.0
2014-Jul-30 15:29N 53°20' E 006°56'0 0.0
2014-Jul-30 14:32N 53°20' E 006°56'0 0.0
2014-Jul-30 13:29N 53°20' E 006°56'0 0.0
2014-Jul-30 12:32N 53°20' E 006°56'0 0.0
2014-Jul-30 11:20N 53°20' E 006°56'1 1.1
2014-Jul-30 10:34N 53°19' E 006°57'15 3.7
2014-Jul-30 06:31N 53°32' E 006°44'6 2.7
2014-Jul-30 04:16N 53°27' E 006°50'0 0.0
2014-Jul-30 03:31N 53°27' E 006°50'0 0.0
2014-Jul-30 02:13N 53°27' E 006°50'0 0.0
2014-Jul-30 01:22N 53°27' E 006°50'0 0.0
2014-Jul-30 00:31N 53°27' E 006°50'0 0.0
2014-Jul-29 23:28N 53°27' E 006°50'0 0.0
2014-Jul-29 22:16N 53°27' E 006°50'0 0.0
2014-Jul-29 18:31N 53°27' E 006°50'0 0.0
2014-Jul-29 17:16N 53°27' E 006°50'0 0.0
2014-Jul-29 16:31N 53°27' E 006°50'0 0.0
2014-Jul-29 15:25N 53°27' E 006°50'0 0.0
2014-Jul-29 14:28N 53°27' E 006°50'0 0.0
2014-Jul-29 11:23N 53°27' E 006°50'8 9.0
2014-Jul-29 10:31N 53°20' E 006°56'3 3.4
2014-Jul-29 09:33N 53°19' E 007°01'3 3.0
2014-Jul-29 08:26N 53°20' E 006°56'0 0.1
2014-Jul-29 07:31N 53°20' E 006°56'0 0.0
2014-Jul-29 06:31N 53°20' E 006°56'0 0.0
2014-Jul-29 05:32N 53°20' E 006°56'0 0.0
2014-Jul-29 04:29N 53°20' E 006°56'0 0.0
2014-Jul-29 03:32N 53°20' E 006°56'0 0.0
2014-Jul-29 02:13N 53°20' E 006°56'0 0.0
2014-Jul-29 01:31N 53°20' E 006°56'0 0.0
2014-Jul-29 00:31N 53°20' E 006°56'0 0.0
2014-Jul-28 23:31N 53°20' E 006°56'0 0.0
2014-Jul-28 22:31N 53°20' E 006°56'0 0.0
2014-Jul-28 21:28N 53°20' E 006°56'0 0.0
2014-Jul-28 20:31N 53°20' E 006°56'0 0.0
2014-Jul-28 19:31N 53°20' E 006°56'0 0.0
2014-Jul-28 18:07N 53°20' E 006°56'0 0.1
2014-Jul-28 17:33N 53°20' E 006°56'2 2.2
2014-Jul-28 16:33N 53°21' E 006°59'2 2.1
2014-Jul-28 15:32N 53°20' E 006°56'0 0.0
2014-Jul-28 14:32N 53°20' E 006°56'0 0.0
2014-Jul-28 13:32N 53°20' E 006°56'0 0.0
2014-Jul-28 12:32N 53°20' E 006°56'3 2.6
2014-Jul-28 11:32N 53°19' E 007°00'1010.0
2014-Jul-28 10:31N 53°27' E 006°49'0 0.0
2014-Jul-28 08:13N 53°27' E 006°50'0 0.0
2014-Jul-28 07:31N 53°27' E 006°50'0 0.0
2014-Jul-28 06:22N 53°27' E 006°50'0 0.0
2014-Jul-28 05:28N 53°27' E 006°50'0 0.0
2014-Jul-28 04:25N 53°27' E 006°50'0 0.0
2014-Jul-28 03:31N 53°27' E 006°50'0 0.0
2014-Jul-28 02:13N 53°27' E 006°50'0 0.0
2014-Jul-28 01:28N 53°27' E 006°50'0 0.0
2014-Jul-28 00:22N 53°27' E 006°50'0 0.0
2014-Jul-27 23:28N 53°27' E 006°50'0 0.0
2014-Jul-27 22:04N 53°27' E 006°50'0 0.0
2014-Jul-27 21:28N 53°27' E 006°50'0 0.0
2014-Jul-27 19:16N 53°27' E 006°50'0 0.0
2014-Jul-27 18:10N 53°27' E 006°50'0 0.0
2014-Jul-27 17:28N 53°27' E 006°50'1 0.1
2014-Jul-27 13:33N 53°27' E 006°50'1 0.5
2014-Jul-27 12:29N 53°27' E 006°50'0 0.0
2014-Jul-27 11:26N 53°27' E 006°50'0 0.0
2014-Jul-27 10:32N 53°27' E 006°50'0 0.0
2014-Jul-27 09:26N 53°27' E 006°50'0 0.0
2014-Jul-27 08:14N 53°27' E 006°50'0 0.0
2014-Jul-27 07:32N 53°27' E 006°50'0 0.0
2014-Jul-27 06:20N 53°27' E 006°50'0 0.0
2014-Jul-27 05:20N 53°27' E 006°50'0 0.0
2014-Jul-27 04:29N 53°27' E 006°50'0 0.0
2014-Jul-27 01:29N 53°27' E 006°50'0 0.0
2014-Jul-27 00:32N 53°27' E 006°50'0 0.0
2014-Jul-26 23:26N 53°27' E 006°50'0 0.0
2014-Jul-26 22:32N 53°27' E 006°50'0 0.0
2014-Jul-26 21:26N 53°27' E 006°50'0 0.0
2014-Jul-26 20:32N 53°27' E 006°50'0 0.0
2014-Jul-26 19:32N 53°27' E 006°50'0 0.0
2014-Jul-26 18:23N 53°27' E 006°50'0 0.0
2014-Jul-26 17:29N 53°27' E 006°50'0 0.0
2014-Jul-26 15:23N 53°27' E 006°50'0 0.0
2014-Jul-26 14:32N 53°27' E 006°50'0 0.0
2014-Jul-26 13:29N 53°27' E 006°50'0 0.0
2014-Jul-26 12:32N 53°27' E 006°50'0 0.0
2014-Jul-26 11:14N 53°27' E 006°50'0 0.0
2014-Jul-26 10:32N 53°27' E 006°50'0 0.0
2014-Jul-26 09:29N 53°27' E 006°50'0 0.0
2014-Jul-26 08:23N 53°27' E 006°50'0 0.0
2014-Jul-26 07:29N 53°27' E 006°50'0 0.0
2014-Jul-26 06:23N 53°27' E 006°50'0 0.0
2014-Jul-26 05:23N 53°27' E 006°50'0 0.0
2014-Jul-26 04:26N 53°27' E 006°50'0 0.0
2014-Jul-26 03:29N 53°27' E 006°50'0 0.0
2014-Jul-26 00:29N 53°27' E 006°50'0 0.0
2014-Jul-25 22:29N 53°27' E 006°50'0 0.0
2014-Jul-25 21:26N 53°27' E 006°50'0 0.0
2014-Jul-25 20:14N 53°27' E 006°50'0 0.0
2014-Jul-25 19:26N 53°27' E 006°50'0 0.0
2014-Jul-25 18:32N 53°27' E 006°50'0 0.0
2014-Jul-25 17:32N 53°27' E 006°50'0 0.0
2014-Jul-25 16:26N 53°27' E 006°50'0 0.0
2014-Jul-25 15:32N 53°27' E 006°50'0 0.0
2014-Jul-25 13:32N 53°27' E 006°50'0 0.1
2014-Jul-25 11:28N 53°27' E 006°50'0 0.1
2014-Jul-25 06:33N 53°27' E 006°50'1 0.5
2014-Jul-25 05:25N 53°27' E 006°50'0 0.0
2014-Jul-25 04:28N 53°27' E 006°50'0 0.0
2014-Jul-25 03:16N 53°27' E 006°50'0 0.0
2014-Jul-25 02:31N 53°27' E 006°50'0 0.0
2014-Jul-25 01:31N 53°27' E 006°50'0 0.0
2014-Jul-25 00:31N 53°27' E 006°50'0 0.0
2014-Jul-24 23:31N 53°27' E 006°50'0 0.0
2014-Jul-24 22:31N 53°27' E 006°50'0 0.0
2014-Jul-24 21:28N 53°27' E 006°50'0 0.0
2014-Jul-24 20:31N 53°27' E 006°50'0 0.0
2014-Jul-24 19:31N 53°27' E 006°50'0 0.0
2014-Jul-24 18:22N 53°27' E 006°50'0 0.0
2014-Jul-24 17:13N 53°27' E 006°50'0 0.0
2014-Jul-24 16:31N 53°27' E 006°50'0 0.1
2014-Jul-24 15:27N 53°27' E 006°49'7725.2
2014-Jul-24 12:25N 54°43' E 007°00'2023.7
2014-Jul-24 11:33N 55°02' E 007°12'3 2.2
2014-Jul-24 10:17N 55°00' E 007°09'1925.4
2014-Jul-24 09:33N 54°44' E 006°55'7324.4
2014-Jul-24 06:33N 53°31' E 006°46'5 4.8
2014-Jul-24 05:33N 53°27' E 006°50'0 0.0
2014-Jul-24 04:32N 53°27' E 006°50'0 0.0
2014-Jul-24 03:29N 53°27' E 006°50'0 0.0
2014-Jul-24 02:32N 53°27' E 006°50'0 0.0
2014-Jul-24 01:32N 53°27' E 006°50'0 0.0
2014-Jul-23 23:23N 53°27' E 006°50'0 0.0
2014-Jul-23 20:32N 53°27' E 006°50'0 0.0
2014-Jul-23 19:29N 53°27' E 006°50'0 0.0
2014-Jul-23 18:26N 53°27' E 006°50'0 0.0
2014-Jul-23 17:17N 53°27' E 006°50'0 0.0
2014-Jul-23 16:20N 53°27' E 006°50'0 0.0
2014-Jul-23 15:29N 53°27' E 006°50'0 0.0
2014-Jul-23 11:31N 53°27' E 006°50'9 9.6
2014-Jul-23 10:33N 53°19' E 006°59'2 1.7
2014-Jul-23 09:29N 53°19' E 006°56'0 0.0
2014-Jul-23 08:32N 53°19' E 006°56'0 0.0
2014-Jul-23 07:29N 53°19' E 006°56'0 0.0
2014-Jul-23 06:26N 53°19' E 006°56'0 0.0
2014-Jul-23 05:26N 53°19' E 006°56'0 0.0
2014-Jul-23 04:32N 53°19' E 006°56'0 0.0
2014-Jul-23 03:32N 53°19' E 006°56'0 0.0
2014-Jul-23 02:32N 53°19' E 006°56'0 0.0
2014-Jul-23 01:32N 53°19' E 006°56'0 0.0
2014-Jul-23 00:32N 53°19' E 006°56'0 0.0
2014-Jul-22 23:29N 53°19' E 006°56'0 0.0
2014-Jul-22 22:32N 53°19' E 006°56'0 0.0
2014-Jul-22 21:32N 53°19' E 006°56'0 0.0
2014-Jul-22 20:26N 53°19' E 006°56'0 0.0
2014-Jul-22 19:26N 53°19' E 006°56'0 0.0
2014-Jul-22 18:29N 53°19' E 006°56'0 0.0
2014-Jul-22 17:32N 53°19' E 006°56'0 0.0
2014-Jul-22 16:32N 53°19' E 006°56'0 0.0
2014-Jul-22 15:20N 53°19' E 006°56'0 0.0
2014-Jul-22 14:32N 53°19' E 006°56'0 0.0
2014-Jul-22 13:20N 53°19' E 006°56'0 0.0
2014-Jul-22 12:29N 53°19' E 006°56'0 0.0
2014-Jul-22 11:23N 53°19' E 006°56'0 0.0
2014-Jul-22 10:32N 53°19' E 006°56'0 0.0
2014-Jul-22 09:32N 53°19' E 006°56'0 0.0
2014-Jul-22 08:29N 53°19' E 006°56'0 0.0
2014-Jul-22 07:32N 53°19' E 006°56'0 0.0
2014-Jul-22 06:32N 53°19' E 006°56'0 0.0
2014-Jul-22 05:17N 53°19' E 006°56'0 0.0
2014-Jul-22 04:32N 53°19' E 006°56'0 0.0
2014-Jul-22 03:32N 53°19' E 006°56'0 0.0
2014-Jul-22 02:26N 53°19' E 006°56'0 0.0
2014-Jul-22 01:32N 53°19' E 006°56'  
Track history (hours):
 
Tides and Currents Weather Stations Pressure Air Temp Water Temp Dewpoint Dewpoint Depression Visibility Wind Speed Wind Dir Waves Ship Positions

Coral Electra

Last reported at 2014-Aug-01 01:29 UTC. Time now 2014-Aug-01 01:54 UTC.
Position N 53°20' E 006°56'.

Length 14 m; draft 2 m.

Type: Port tender. MMSI: 244690019.

Date/timePositionNaut miles runAvg speedWind from/ knotsBaromVisibWave heightAir tempDewpointWater temp
2014-Aug-01 01:29N 53°20' E 006°56'0 0.0
2014-Aug-01 00:32N 53°20' E 006°56'0 0.0
2014-Jul-31 23:29N 53°20' E 006°56'0 0.0
2014-Jul-31 22:17N 53°20' E 006°56'0 0.0
2014-Jul-31 21:32N 53°20' E 006°56'0 0.0
2014-Jul-31 20:29N 53°20' E 006°56'0 0.0
2014-Jul-31 19:32N 53°20' E 006°56'0 0.0
2014-Jul-31 18:26N 53°20' E 006°56'0 0.0
2014-Jul-31 17:32N 53°20' E 006°56'0 0.0
2014-Jul-31 16:32N 53°20' E 006°56'0 0.0
2014-Jul-31 15:32N 53°20' E 006°56'0 0.0
2014-Jul-31 14:32N 53°20' E 006°56'0 0.0
2014-Jul-31 13:32N 53°20' E 006°56'0 0.0
2014-Jul-31 12:20N 53°20' E 006°56'0 0.0
2014-Jul-31 11:32N 53°20' E 006°56'0 0.0
2014-Jul-31 10:29N 53°20' E 006°56'0 0.0
2014-Jul-31 09:29N 53°20' E 006°56'0 0.0
2014-Jul-31 08:32N 53°20' E 006°56'0 0.0
2014-Jul-31 07:29N 53°20' E 006°56'0 0.0
2014-Jul-31 06:32N 53°20' E 006°56'0 0.0
2014-Jul-31 05:32N 53°20' E 006°56'0 0.0
2014-Jul-31 04:26N 53°20' E 006°56'0 0.0
2014-Jul-31 03:32N 53°20' E 006°56'0 0.0
2014-Jul-31 02:32N 53°20' E 006°56'0 0.0
2014-Jul-31 01:29N 53°20' E 006°56'0 0.0
2014-Jul-31 00:32N 53°20' E 006°56'0 0.0
2014-Jul-30 23:32N 53°20' E 006°56'0 0.0
2014-Jul-30 22:32N 53°20' E 006°56'0 0.0
2014-Jul-30 21:32N 53°20' E 006°56'0 0.0
2014-Jul-30 20:32N 53°20' E 006°56'0 0.0
2014-Jul-30 19:32N 53°20' E 006°56'0 0.0
2014-Jul-30 18:29N 53°20' E 006°56'0 0.0
2014-Jul-30 17:32N 53°20' E 006°56'0 0.0
2014-Jul-30 16:32N 53°20' E 006°56'0 0.0
2014-Jul-30 15:29N 53°20' E 006°56'0 0.0
2014-Jul-30 14:32N 53°20' E 006°56'0 0.0
2014-Jul-30 13:29N 53°20' E 006°56'0 0.0
2014-Jul-30 12:32N 53°20' E 006°56'0 0.0
2014-Jul-30 11:20N 53°20' E 006°56'1 1.1
2014-Jul-30 10:34N 53°19' E 006°57'15 3.7
2014-Jul-30 06:31N 53°32' E 006°44'6 2.7
2014-Jul-30 04:16N 53°27' E 006°50'0 0.0
2014-Jul-30 03:31N 53°27' E 006°50'0 0.0
2014-Jul-30 02:13N 53°27' E 006°50'0 0.0
2014-Jul-30 01:22N 53°27' E 006°50'0 0.0
2014-Jul-30 00:31N 53°27' E 006°50'0 0.0
2014-Jul-29 23:28N 53°27' E 006°50'0 0.0
2014-Jul-29 22:16N 53°27' E 006°50'0 0.0
2014-Jul-29 18:31N 53°27' E 006°50'0 0.0
2014-Jul-29 17:16N 53°27' E 006°50'0 0.0
2014-Jul-29 16:31N 53°27' E 006°50'0 0.0
2014-Jul-29 15:25N 53°27' E 006°50'0 0.0
2014-Jul-29 14:28N 53°27' E 006°50'0 0.0
2014-Jul-29 11:23N 53°27' E 006°50'8 9.0
2014-Jul-29 10:31N 53°20' E 006°56'3 3.4
2014-Jul-29 09:33N 53°19' E 007°01'3 3.0
2014-Jul-29 08:26N 53°20' E 006°56'0 0.1
2014-Jul-29 07:31N 53°20' E 006°56'0 0.0
2014-Jul-29 06:31N 53°20' E 006°56'0 0.0
2014-Jul-29 05:32N 53°20' E 006°56'0 0.0
2014-Jul-29 04:29N 53°20' E 006°56'0 0.0
2014-Jul-29 03:32N 53°20' E 006°56'0 0.0
2014-Jul-29 02:13N 53°20' E 006°56'0 0.0
2014-Jul-29 01:31N 53°20' E 006°56'0 0.0
2014-Jul-29 00:31N 53°20' E 006°56'0 0.0
2014-Jul-28 23:31N 53°20' E 006°56'0 0.0
2014-Jul-28 22:31N 53°20' E 006°56'0 0.0
2014-Jul-28 21:28N 53°20' E 006°56'0 0.0
2014-Jul-28 20:31N 53°20' E 006°56'0 0.0
2014-Jul-28 19:31N 53°20' E 006°56'0 0.0
2014-Jul-28 18:07N 53°20' E 006°56'0 0.1
2014-Jul-28 17:33N 53°20' E 006°56'2 2.2
2014-Jul-28 16:33N 53°21' E 006°59'2 2.1
2014-Jul-28 15:32N 53°20' E 006°56'0 0.0
2014-Jul-28 14:32N 53°20' E 006°56'0 0.0
2014-Jul-28 13:32N 53°20' E 006°56'0 0.0
2014-Jul-28 12:32N 53°20' E 006°56'3 2.6
2014-Jul-28 11:32N 53°19' E 007°00'1010.0
2014-Jul-28 10:31N 53°27' E 006°49'0 0.0
2014-Jul-28 08:13N 53°27' E 006°50'0 0.0
2014-Jul-28 07:31N 53°27' E 006°50'0 0.0
2014-Jul-28 06:22N 53°27' E 006°50'0 0.0
2014-Jul-28 05:28N 53°27' E 006°50'0 0.0
2014-Jul-28 04:25N 53°27' E 006°50'0 0.0
2014-Jul-28 03:31N 53°27' E 006°50'0 0.0
2014-Jul-28 02:13N 53°27' E 006°50'0 0.0
2014-Jul-28 01:28N 53°27' E 006°50'0 0.0
2014-Jul-28 00:22N 53°27' E 006°50'0 0.0
2014-Jul-27 23:28N 53°27' E 006°50'0 0.0
2014-Jul-27 22:04N 53°27' E 006°50'0 0.0
2014-Jul-27 21:28N 53°27' E 006°50'0 0.0
2014-Jul-27 19:16N 53°27' E 006°50'0 0.0
2014-Jul-27 18:10N 53°27' E 006°50'0 0.0
2014-Jul-27 17:28N 53°27' E 006°50'1 0.1
2014-Jul-27 13:33N 53°27' E 006°50'1 0.5
2014-Jul-27 12:29N 53°27' E 006°50'0 0.0
2014-Jul-27 11:26N 53°27' E 006°50'0 0.0
2014-Jul-27 10:32N 53°27' E 006°50'0 0.0
2014-Jul-27 09:26N 53°27' E 006°50'0 0.0
2014-Jul-27 08:14N 53°27' E 006°50'0 0.0
2014-Jul-27 07:32N 53°27' E 006°50'0 0.0
2014-Jul-27 06:20N 53°27' E 006°50'0 0.0
2014-Jul-27 05:20N 53°27' E 006°50'0 0.0
2014-Jul-27 04:29N 53°27' E 006°50'0 0.0
2014-Jul-27 01:29N 53°27' E 006°50'0 0.0
2014-Jul-27 00:32N 53°27' E 006°50'0 0.0
2014-Jul-26 23:26N 53°27' E 006°50'0 0.0
2014-Jul-26 22:32N 53°27' E 006°50'0 0.0
2014-Jul-26 21:26N 53°27' E 006°50'0 0.0
2014-Jul-26 20:32N 53°27' E 006°50'0 0.0
2014-Jul-26 19:32N 53°27' E 006°50'0 0.0
2014-Jul-26 18:23N 53°27' E 006°50'0 0.0
2014-Jul-26 17:29N 53°27' E 006°50'0 0.0
2014-Jul-26 15:23N 53°27' E 006°50'0 0.0
2014-Jul-26 14:32N 53°27' E 006°50'0 0.0
2014-Jul-26 13:29N 53°27' E 006°50'0 0.0
2014-Jul-26 12:32N 53°27' E 006°50'0 0.0
2014-Jul-26 11:14N 53°27' E 006°50'0 0.0
2014-Jul-26 10:32N 53°27' E 006°50'0 0.0
2014-Jul-26 09:29N 53°27' E 006°50'0 0.0
2014-Jul-26 08:23N 53°27' E 006°50'0 0.0
2014-Jul-26 07:29N 53°27' E 006°50'0 0.0
2014-Jul-26 06:23N 53°27' E 006°50'0 0.0
2014-Jul-26 05:23N 53°27' E 006°50'0 0.0
2014-Jul-26 04:26N 53°27' E 006°50'0 0.0
2014-Jul-26 03:29N 53°27' E 006°50'0 0.0
2014-Jul-26 00:29N 53°27' E 006°50'0 0.0
2014-Jul-25 22:29N 53°27' E 006°50'0 0.0
2014-Jul-25 21:26N 53°27' E 006°50'0 0.0
2014-Jul-25 20:14N 53°27' E 006°50'0 0.0
2014-Jul-25 19:26N 53°27' E 006°50'0 0.0
2014-Jul-25 18:32N 53°27' E 006°50'0 0.0
2014-Jul-25 17:32N 53°27' E 006°50'0 0.0
2014-Jul-25 16:26N 53°27' E 006°50'0 0.0
2014-Jul-25 15:32N 53°27' E 006°50'0 0.0
2014-Jul-25 13:32N 53°27' E 006°50'0 0.1
2014-Jul-25 11:28N 53°27' E 006°50'0 0.1
2014-Jul-25 06:33N 53°27' E 006°50'1 0.5
2014-Jul-25 05:25N 53°27' E 006°50'0 0.0
2014-Jul-25 04:28N 53°27' E 006°50'0 0.0
2014-Jul-25 03:16N 53°27' E 006°50'0 0.0
2014-Jul-25 02:31N 53°27' E 006°50'0 0.0
2014-Jul-25 01:31N 53°27' E 006°50'0 0.0
2014-Jul-25 00:31N 53°27' E 006°50'0 0.0
2014-Jul-24 23:31N 53°27' E 006°50'0 0.0
2014-Jul-24 22:31N 53°27' E 006°50'0 0.0
2014-Jul-24 21:28N 53°27' E 006°50'0 0.0
2014-Jul-24 20:31N 53°27' E 006°50'0 0.0
2014-Jul-24 19:31N 53°27' E 006°50'0 0.0
2014-Jul-24 18:22N 53°27' E 006°50'0 0.0
2014-Jul-24 17:13N 53°27' E 006°50'0 0.0
2014-Jul-24 16:31N 53°27' E 006°50'0 0.1
2014-Jul-24 15:27N 53°27' E 006°49'7725.2
2014-Jul-24 12:25N 54°43' E 007°00'2023.7
2014-Jul-24 11:33N 55°02' E 007°12'3 2.2
2014-Jul-24 10:17N 55°00' E 007°09'1925.4
2014-Jul-24 09:33N 54°44' E 006°55'7324.4
2014-Jul-24 06:33N 53°31' E 006°46'5 4.8
2014-Jul-24 05:33N 53°27' E 006°50'0 0.0
2014-Jul-24 04:32N 53°27' E 006°50'0 0.0
2014-Jul-24 03:29N 53°27' E 006°50'0 0.0
2014-Jul-24 02:32N 53°27' E 006°50'0 0.0
2014-Jul-24 01:32N 53°27' E 006°50'0 0.0
2014-Jul-23 23:23N 53°27' E 006°50'0 0.0
2014-Jul-23 20:32N 53°27' E 006°50'0 0.0
2014-Jul-23 19:29N 53°27' E 006°50'0 0.0
2014-Jul-23 18:26N 53°27' E 006°50'0 0.0
2014-Jul-23 17:17N 53°27' E 006°50'0 0.0
2014-Jul-23 16:20N 53°27' E 006°50'0 0.0
2014-Jul-23 15:29N 53°27' E 006°50'0 0.0
2014-Jul-23 11:31N 53°27' E 006°50'9 9.6
2014-Jul-23 10:33N 53°19' E 006°59'2 1.7
2014-Jul-23 09:29N 53°19' E 006°56'0 0.0
2014-Jul-23 08:32N 53°19' E 006°56'0 0.0
2014-Jul-23 07:29N 53°19' E 006°56'0 0.0
2014-Jul-23 06:26N 53°19' E 006°56'0 0.0
2014-Jul-23 05:26N 53°19' E 006°56'0 0.0
2014-Jul-23 04:32N 53°19' E 006°56'0 0.0
2014-Jul-23 03:32N 53°19' E 006°56'0 0.0
2014-Jul-23 02:32N 53°19' E 006°56'0 0.0
2014-Jul-23 01:32N 53°19' E 006°56'0 0.0
2014-Jul-23 00:32N 53°19' E 006°56'0 0.0
2014-Jul-22 23:29N 53°19' E 006°56'0 0.0
2014-Jul-22 22:32N 53°19' E 006°56'0 0.0
2014-Jul-22 21:32N 53°19' E 006°56'0 0.0
2014-Jul-22 20:26N 53°19' E 006°56'0 0.0
2014-Jul-22 19:26N 53°19' E 006°56'0 0.0
2014-Jul-22 18:29N 53°19' E 006°56'0 0.0
2014-Jul-22 17:32N 53°19' E 006°56'0 0.0
2014-Jul-22 16:32N 53°19' E 006°56'0 0.0
2014-Jul-22 15:20N 53°19' E 006°56'0 0.0
2014-Jul-22 14:32N 53°19' E 006°56'0 0.0
2014-Jul-22 13:20N 53°19' E 006°56'0 0.0
2014-Jul-22 12:29N 53°19' E 006°56'0 0.0
2014-Jul-22 11:23N 53°19' E 006°56'0 0.0
2014-Jul-22 10:32N 53°19' E 006°56'0 0.0
2014-Jul-22 09:32N 53°19' E 006°56'0 0.0
2014-Jul-22 08:29N 53°19' E 006°56'0 0.0
2014-Jul-22 07:32N 53°19' E 006°56'0 0.0
2014-Jul-22 06:32N 53°19' E 006°56'0 0.0
2014-Jul-22 05:17N 53°19' E 006°56'0 0.0
2014-Jul-22 04:32N 53°19' E 006°56'0 0.0
2014-Jul-22 03:32N 53°19' E 006°56'0 0.0
2014-Jul-22 02:26N 53°19' E 006°56'0 0.0
2014-Jul-22 01:32N 53°19' E 006°56'  

Dump ship's entire track history